This is the latest recevied weather packets stored in our database for station/object K8GLX. If no packets are shown the sender has not sent any weather packets the latest 1 day(s).
| Time | Temp. | Humidity | Pressure | Rain* | Wind** | Luminosity | Snow |
|---|---|---|---|---|---|---|---|
| 1778018179 | 9.44° C | 96% | 1008.5 hPa | 0 mm | 0.89 m/s, 295° | 21 W/m² | - |
| 1778017872 | 9.44° C | 96% | 1008.2 hPa | 0 mm | 1.79 m/s, 323° | 50 W/m² | - |
| 1778017577 | 9.44° C | 96% | 1008.5 hPa | 0 mm | 1.34 m/s, 308° | 40 W/m² | - |
| 1778017271 | 9.44° C | 96% | 1008.2 hPa | 0 mm | 0.89 m/s, 325° | 23 W/m² | - |
| 1778016975 | 9.44° C | 96% | 1008.5 hPa | 0 mm | 0 m/s | 39 W/m² | - |
| 1778016668 | 9.44° C | 96% | 1008.9 hPa | 0 mm | 0.89 m/s, 291° | 20 W/m² | - |
| 1778016502 | 9.44° C | 96% | 1008.2 hPa | 0 mm | 0.45 m/s, 328° | 43 W/m² | - |
| 1778016067 | 10° C | 96% | 1008.2 hPa | 0 mm | 1.34 m/s, 281° | 37 W/m² | - |
| 1778015775 | 10° C | 96% | 1008.2 hPa | - | 3.13 m/s, 310° | 57 W/m² | - |
| 1778008821 | 13.33° C | 87% | 1007.9 hPa | - | 2.68 m/s, 262° | - | - |
| 1778008817 | 13.33° C | 87% | 1007.8 hPa | 0 mm | 1.34 m/s, 262° | 74 W/m² | - |
| 1778008648 | 13.33° C | 87% | 1007.8 hPa | 0 mm | 1.34 m/s, 262° | 74 W/m² | - |
| 1778007136 | 13.89° C | 85% | 1007.9 hPa | 0 mm | 2.24 m/s, 281° | 72 W/m² | - |
| 1778006856 | 14.44° C | 80% | 1008 hPa | 0 mm | 2.24 m/s, 279° | 87 W/m² | - |
| 1778006831 | 14.44° C | 82% | 1008 hPa | 0 mm | 3.13 m/s, 273° | 95 W/m² | - |
| 1778006228 | 14.44° C | 81% | 1007.9 hPa | 0 mm | 0.89 m/s, 14° | 92 W/m² | - |
| 1778006063 | 14.44° C | 82% | 1008.1 hPa | 0 mm | 2.24 m/s, 302° | 72 W/m² | - |
| 1778005629 | 14.44° C | 82% | 1008 hPa | 0 mm | 2.68 m/s, 268° | 113 W/m² | - |
| 1778005334 | 14.44° C | 82% | 1007.9 hPa | 0 mm | 1.79 m/s, 261° | 100 W/m² | - |
| 1778005031 | 14.44° C | 82% | 1007.9 hPa | 0 mm | 2.68 m/s, 253° | 55 W/m² | - |
| 1778004734 | 14.44° C | 82% | 1007.7 hPa | 0 mm | 1.79 m/s, 298° | 85 W/m² | - |
| 1778004429 | 14.44° C | 82% | 1007.7 hPa | 0 mm | 2.24 m/s, 289° | 51 W/m² | - |
| 1778004261 | 14.44° C | 81% | 1007.8 hPa | 0 mm | 2.68 m/s, 289° | 63 W/m² | - |
| 1778003828 | 15° C | 80% | 1007.5 hPa | 0 mm | 3.13 m/s, 281° | 72 W/m² | - |
| 1778003534 | 15° C | 80% | 1007.5 hPa | 0 mm | 2.24 m/s, 273° | 90 W/m² | - |
* Rain latest hour (hover to see other rain measurements)
** Current wind speed in m/s (hover to see current wind gust speed)